Check out our new PWSWeather beta!
PWSweather.com
Personal Weather Stations
Station Observations

SkegnessGB

Lat: 53.147585, Lon: 0.345774

Elevation: 18

Station Type: Fine Offset WH3080

http://www.skegnessweather.info/

High Low Average
Temperature 44.6°F7.0°C 32.2°F0.1°C 40.5°F4.7°C
Dew Point 38.8°F3.8°C 24.7°F-4.1°C 32.0°F0.0°C
Winds 12.8 mph 20.6 kmh 0.3 mph 0.5 kmh 6.0 mph S9.7 kmh S
Wind Gusts 20.2 mph32.5 kmh 1.7 mph2.7 kmh 8.0 mph12.9 kmh
Humidity 86% 59% 72%
Pressure 30.17 in1021.7 mb 29.14 in986.8 mb -
Precipitation 0.00 in0.0 mm - -
Hour Temp Dew Point Humidity Winds Wind Gusts Pressure Precip Precip Rate Daily Precip Total
12:00 AM 40.3°F4.6°C 35.2°F1.8°C 82% 10.2 mph S16.4 kmh S 10.8 mph17.4 kmh 29.15 in987.1 mb 0.00 in0.0 mm 0.00 in0.0 mm 0.00 in0.0 mm
12:10 AM 40.3°F4.6°C 35.2°F1.8°C 82% 9.7 mph SW15.6 kmh SW 10.8 mph17.4 kmh 29.14 in986.8 mb 0.00 in0.0 mm 0.00 in0.0 mm 0.00 in0.0 mm
12:20 AM 40.3°F4.6°C 35.2°F1.8°C 82% 10.4 mph SW16.7 kmh SW 10.8 mph17.4 kmh 29.14 in986.8 mb 0.00 in0.0 mm 0.00 in0.0 mm 0.00 in0.0 mm
12:30 AM 40.5°F4.7°C 35.4°F1.9°C 82% 10.1 mph W16.3 kmh W 11.8 mph19.0 kmh 29.14 in986.8 mb 0.00 in0.0 mm 0.00 in0.0 mm 0.00 in0.0 mm
12:40 AM 40.5°F4.7°C 35.4°F1.9°C 82% 9.7 mph SW15.6 kmh SW 10.8 mph17.4 kmh 29.15 in987.1 mb 0.00 in0.0 mm 0.00 in0.0 mm 0.00 in0.0 mm
12:50 AM 40.6°F4.8°C 35.6°F2.0°C 82% 9.6 mph SW15.4 kmh SW 11.8 mph19.0 kmh 29.15 in987.1 mb 0.00 in0.0 mm 0.00 in0.0 mm 0.00 in0.0 mm
01:00 AM 40.8°F4.9°C 35.7°F2.1°C 82% 8.5 mph SW13.7 kmh SW 11.8 mph19.0 kmh 29.14 in986.8 mb 0.00 in0.0 mm 0.00 in0.0 mm 0.00 in0.0 mm
01:10 AM 40.8°F4.9°C 35.7°F2.1°C 82% 8.2 mph S13.2 kmh S 9.1 mph14.6 kmh 29.15 in987.1 mb 0.00 in0.0 mm 0.00 in0.0 mm 0.00 in0.0 mm
01:20 AM 40.8°F4.9°C 35.7°F2.1°C 82% 9.1 mph SSW14.6 kmh SSW 11.8 mph19.0 kmh 29.15 in987.1 mb 0.00 in0.0 mm 0.00 in0.0 mm 0.00 in0.0 mm
01:30 AM 41.2°F5.1°C 36.1°F2.3°C 82% 7.4 mph WSW11.9 kmh WSW 11.8 mph19.0 kmh 29.15 in987.1 mb 0.00 in0.0 mm 0.00 in0.0 mm 0.00 in0.0 mm
01:40 AM 41.4°F5.2°C 36.3°F2.4°C 82% 6.8 mph SW10.9 kmh SW 11.8 mph19.0 kmh 29.15 in987.1 mb 0.00 in0.0 mm 0.00 in0.0 mm 0.00 in0.0 mm
01:50 AM 41.4°F5.2°C 36.3°F2.4°C 82% 7.4 mph SW11.9 kmh SW 8.4 mph13.5 kmh 29.15 in987.1 mb 0.00 in0.0 mm 0.00 in0.0 mm 0.00 in0.0 mm
02:00 AM 41.4°F5.2°C 36.3°F2.4°C 82% 6.7 mph SW10.8 kmh SW 8.4 mph13.5 kmh 29.15 in987.1 mb 0.00 in0.0 mm 0.00 in0.0 mm 0.00 in0.0 mm
02:10 AM 41.4°F5.2°C 36.3°F2.4°C 82% 6.1 mph SSW9.8 kmh SSW 10.1 mph16.3 kmh 29.16 in987.5 mb 0.00 in0.0 mm 0.00 in0.0 mm 0.00 in0.0 mm
02:20 AM 41.5°F5.3°C 36.5°F2.5°C 82% 6.4 mph S10.3 kmh S 8.4 mph13.5 kmh 29.16 in987.5 mb 0.00 in0.0 mm 0.00 in0.0 mm 0.00 in0.0 mm
02:30 AM 41.5°F5.3°C 36.5°F2.5°C 82% 4.9 mph SW7.9 kmh SW 6.6 mph10.6 kmh 29.17 in987.8 mb 0.00 in0.0 mm 0.00 in0.0 mm 0.00 in0.0 mm
02:40 AM 41.4°F5.2°C 36.3°F2.4°C 82% 4.0 mph SSW6.4 kmh SSW 4.2 mph6.8 kmh 29.17 in987.8 mb 0.00 in0.0 mm 0.00 in0.0 mm 0.00 in0.0 mm
02:50 AM 41.5°F5.3°C 36.5°F2.5°C 82% 5.5 mph SSW8.9 kmh SSW 5.9 mph9.5 kmh 29.18 in988.1 mb 0.00 in0.0 mm 0.00 in0.0 mm 0.00 in0.0 mm
03:00 AM 41.5°F5.3°C 36.5°F2.5°C 82% 4.6 mph S7.4 kmh S 4.9 mph7.9 kmh 29.18 in988.1 mb 0.00 in0.0 mm 0.00 in0.0 mm 0.00 in0.0 mm
03:10 AM 41.4°F5.2°C 36.3°F2.4°C 82% 5.1 mph SW8.2 kmh SW 4.9 mph7.9 kmh 29.19 in988.5 mb 0.00 in0.0 mm 0.00 in0.0 mm 0.00 in0.0 mm
03:20 AM 41.2°F5.1°C 36.1°F2.3°C 82% 5.0 mph SSW8.0 kmh SSW 6.6 mph10.6 kmh 29.19 in988.5 mb 0.00 in0.0 mm 0.00 in0.0 mm 0.00 in0.0 mm
03:30 AM 41.2°F5.1°C 36.1°F2.3°C 82% 4.5 mph S7.2 kmh S 4.9 mph7.9 kmh 29.20 in988.8 mb 0.00 in0.0 mm 0.00 in0.0 mm 0.00 in0.0 mm
03:40 AM 41.4°F5.2°C 36.6°F2.6°C 83% 6.3 mph S10.1 kmh S 7.6 mph12.2 kmh 29.20 in988.8 mb 0.00 in0.0 mm 0.00 in0.0 mm 0.00 in0.0 mm
03:50 AM 41.0°F5.0°C 36.2°F2.3°C 83% 5.6 mph SW9.0 kmh SW 6.6 mph10.6 kmh 29.21 in989.2 mb 0.00 in0.0 mm 0.00 in0.0 mm 0.00 in0.0 mm
04:00 AM 40.8°F4.9°C 36.1°F2.3°C 83% 4.9 mph SW7.9 kmh SW 6.6 mph10.6 kmh 29.21 in989.2 mb 0.00 in0.0 mm 0.00 in0.0 mm 0.00 in0.0 mm
04:10 AM 40.8°F4.9°C 36.1°F2.3°C 83% 6.5 mph WSW10.5 kmh WSW 7.6 mph12.2 kmh 29.23 in989.8 mb 0.00 in0.0 mm 0.00 in0.0 mm 0.00 in0.0 mm
04:20 AM 40.8°F4.9°C 36.1°F2.3°C 83% 8.1 mph WSW13.0 kmh WSW 10.1 mph16.3 kmh 29.23 in989.8 mb 0.00 in0.0 mm 0.00 in0.0 mm 0.00 in0.0 mm
04:30 AM 41.0°F5.0°C 36.2°F2.3°C 83% 6.0 mph SW9.7 kmh SW 7.6 mph12.2 kmh 29.24 in990.2 mb 0.00 in0.0 mm 0.00 in0.0 mm 0.00 in0.0 mm
04:40 AM 41.2°F5.1°C 36.7°F2.6°C 84% 6.6 mph SW10.6 kmh SW 9.1 mph14.6 kmh 29.24 in990.2 mb 0.00 in0.0 mm 0.00 in0.0 mm 0.00 in0.0 mm
04:50 AM 41.4°F5.2°C 36.9°F2.7°C 84% 6.9 mph SSW11.1 kmh SSW 10.8 mph17.4 kmh 29.25 in990.5 mb 0.00 in0.0 mm 0.00 in0.0 mm 0.00 in0.0 mm
05:00 AM 41.4°F5.2°C 36.9°F2.7°C 84% 5.8 mph WSW9.3 kmh WSW 8.4 mph13.5 kmh 29.27 in991.2 mb 0.00 in0.0 mm 0.00 in0.0 mm 0.00 in0.0 mm
05:10 AM 41.5°F5.3°C 37.4°F3.0°C 85% 6.3 mph SW10.1 kmh SW 8.4 mph13.5 kmh 29.28 in991.5 mb 0.00 in0.0 mm 0.00 in0.0 mm 0.00 in0.0 mm
05:20 AM 41.5°F5.3°C 37.4°F3.0°C 85% 6.0 mph SSW9.7 kmh SSW 8.4 mph13.5 kmh 29.28 in991.5 mb 0.00 in0.0 mm 0.00 in0.0 mm 0.00 in0.0 mm
05:30 AM 41.9°F5.5°C 37.7°F3.2°C 85% 5.1 mph S8.2 kmh S 6.6 mph10.6 kmh 29.29 in991.9 mb 0.00 in0.0 mm 0.00 in0.0 mm 0.00 in0.0 mm
05:40 AM 42.4°F5.8°C 38.5°F3.6°C 86% 6.0 mph S9.7 kmh S 9.1 mph14.6 kmh 29.31 in992.6 mb 0.00 in0.0 mm 0.00 in0.0 mm 0.00 in0.0 mm
05:50 AM 42.8°F6.0°C 38.6°F3.7°C 85% 5.6 mph WSW9.0 kmh WSW 8.4 mph13.5 kmh 29.32 in992.9 mb 0.00 in0.0 mm 0.00 in0.0 mm 0.00 in0.0 mm
06:00 AM 43.0°F6.1°C 38.8°F3.8°C 85% 5.8 mph SSE9.3 kmh SSE 6.6 mph10.6 kmh 29.33 in993.2 mb 0.00 in0.0 mm 0.00 in0.0 mm 0.00 in0.0 mm
06:10 AM 43.3°F6.3°C 38.5°F3.6°C 83% 6.8 mph SSW10.9 kmh SSW 9.1 mph14.6 kmh 29.34 in993.6 mb 0.00 in0.0 mm 0.00 in0.0 mm 0.00 in0.0 mm
06:20 AM 43.5°F6.4°C 38.1°F3.4°C 81% 7.3 mph WSW11.7 kmh WSW 10.1 mph16.3 kmh 29.35 in993.9 mb 0.00 in0.0 mm 0.00 in0.0 mm 0.00 in0.0 mm
06:30 AM 43.5°F6.4°C 37.8°F3.2°C 80% 7.3 mph SSW11.7 kmh SSW 9.1 mph14.6 kmh 29.36 in994.2 mb 0.00 in0.0 mm 0.00 in0.0 mm 0.00 in0.0 mm
06:40 AM 43.7°F6.5°C 37.0°F2.8°C 77% 7.5 mph SSE12.1 kmh SSE 9.1 mph14.6 kmh 29.36 in994.2 mb 0.00 in0.0 mm 0.00 in0.0 mm 0.00 in0.0 mm
06:50 AM 43.7°F6.5°C 36.3°F2.4°C 75% 7.4 mph WSW11.9 kmh WSW 10.1 mph16.3 kmh 29.38 in994.9 mb 0.00 in0.0 mm 0.00 in0.0 mm 0.00 in0.0 mm
07:00 AM 43.7°F6.5°C 35.6°F2.0°C 73% 9.2 mph S14.8 kmh S 12.5 mph20.1 kmh 29.39 in995.3 mb 0.00 in0.0 mm 0.00 in0.0 mm 0.00 in0.0 mm
07:10 AM 43.9°F6.6°C 35.8°F2.1°C 73% 7.5 mph W12.1 kmh W 9.1 mph14.6 kmh 29.41 in995.9 mb 0.00 in0.0 mm 0.00 in0.0 mm 0.00 in0.0 mm
07:20 AM 43.9°F6.6°C 35.4°F1.9°C 72% 7.6 mph SSE12.2 kmh SSE 10.8 mph17.4 kmh 29.42 in996.3 mb 0.00 in0.0 mm 0.00 in0.0 mm 0.00 in0.0 mm
07:30 AM 44.1°F6.7°C 35.6°F2.0°C 72% 7.6 mph SSW12.2 kmh SSW 8.4 mph13.5 kmh 29.44 in997.0 mb 0.00 in0.0 mm 0.00 in0.0 mm 0.00 in0.0 mm
07:40 AM 44.2°F6.8°C 35.4°F1.9°C 71% 8.8 mph SE14.2 kmh SE 11.8 mph19.0 kmh 29.45 in997.3 mb 0.00 in0.0 mm 0.00 in0.0 mm 0.00 in0.0 mm
07:50 AM 44.2°F6.8°C 35.4°F1.9°C 71% 8.2 mph NE13.2 kmh NE 10.8 mph17.4 kmh 29.46 in997.6 mb 0.00 in0.0 mm 0.00 in0.0 mm 0.00 in0.0 mm
08:00 AM 43.9°F6.6°C 35.1°F1.7°C 71% 8.3 mph WNW13.4 kmh WNW 10.1 mph16.3 kmh 29.47 in998.0 mb 0.00 in0.0 mm 0.00 in0.0 mm 0.00 in0.0 mm
08:10 AM 43.5°F6.4°C 35.1°F1.7°C 72% 8.9 mph WNW14.3 kmh WNW 20.2 mph32.5 kmh 29.49 in998.6 mb 0.00 in0.0 mm 0.00 in0.0 mm 0.00 in0.0 mm
08:20 AM 43.2°F6.2°C 35.1°F1.7°C 73% 8.9 mph ENE14.3 kmh ENE 16.7 mph26.9 kmh 29.50 in999.0 mb 0.00 in0.0 mm 0.00 in0.0 mm 0.00 in0.0 mm
08:30 AM 43.2°F6.2°C 35.1°F1.7°C 73% 6.7 mph ESE10.8 kmh ESE 8.4 mph13.5 kmh 29.53 in1000.0 mb 0.00 in0.0 mm 0.00 in0.0 mm 0.00 in0.0 mm
08:40 AM 43.3°F6.3°C 35.6°F2.0°C 74% 7.0 mph ESE11.3 kmh ESE 7.6 mph12.2 kmh 29.54 in1000.3 mb 0.00 in0.0 mm 0.00 in0.0 mm 0.00 in0.0 mm
08:50 AM 43.2°F6.2°C 35.4°F1.9°C 74% 6.4 mph SW10.3 kmh SW 11.8 mph19.0 kmh 29.55 in1000.7 mb 0.00 in0.0 mm 0.00 in0.0 mm 0.00 in0.0 mm
09:00 AM 43.3°F6.3°C 35.3°F1.8°C 73% 7.8 mph S12.6 kmh S 10.1 mph16.3 kmh 29.56 in1001.0 mb 0.00 in0.0 mm 0.00 in0.0 mm 0.00 in0.0 mm
09:10 AM 43.7°F6.5°C 34.6°F1.4°C 70% 7.3 mph W11.7 kmh W 10.8 mph17.4 kmh 29.58 in1001.7 mb 0.00 in0.0 mm 0.00 in0.0 mm 0.00 in0.0 mm
09:20 AM 43.7°F6.5°C 34.2°F1.2°C 69% 9.1 mph NW14.6 kmh NW 12.5 mph20.1 kmh 29.59 in1002.0 mb 0.00 in0.0 mm 0.00 in0.0 mm 0.00 in0.0 mm
09:30 AM 43.9°F6.6°C 34.0°F1.1°C 68% 8.5 mph WSW13.7 kmh WSW 10.8 mph17.4 kmh 29.61 in1002.7 mb 0.00 in0.0 mm 0.00 in0.0 mm 0.00 in0.0 mm
09:40 AM 43.9°F6.6°C 33.6°F0.9°C 67% 7.8 mph NNE12.6 kmh NNE 9.1 mph14.6 kmh 29.62 in1003.0 mb 0.00 in0.0 mm 0.00 in0.0 mm 0.00 in0.0 mm
09:50 AM 43.7°F6.5°C 33.5°F0.8°C 67% 7.7 mph SW12.4 kmh SW 11.8 mph19.0 kmh 29.63 in1003.4 mb 0.00 in0.0 mm 0.00 in0.0 mm 0.00 in0.0 mm
10:00 AM 43.9°F6.6°C 33.3°F0.7°C 66% 11.0 mph E17.7 kmh E 13.3 mph21.4 kmh 29.64 in1003.7 mb 0.00 in0.0 mm 0.00 in0.0 mm 0.00 in0.0 mm
10:10 AM 44.1°F6.7°C 33.4°F0.8°C 66% 11.6 mph SE18.7 kmh SE 16.7 mph26.9 kmh 29.66 in1004.4 mb 0.00 in0.0 mm 0.00 in0.0 mm 0.00 in0.0 mm
10:20 AM 44.1°F6.7°C 33.4°F0.8°C 66% 9.8 mph E15.8 kmh E 16.7 mph26.9 kmh 29.67 in1004.7 mb 0.00 in0.0 mm 0.00 in0.0 mm 0.00 in0.0 mm
10:30 AM 44.2°F6.8°C 33.6°F0.9°C 66% 8.5 mph NE13.7 kmh NE 10.1 mph16.3 kmh 29.69 in1005.4 mb 0.00 in0.0 mm 0.00 in0.0 mm 0.00 in0.0 mm
10:40 AM 44.1°F6.7°C 33.4°F0.8°C 66% 9.8 mph ESE15.8 kmh ESE 15.0 mph24.1 kmh 29.70 in1005.8 mb 0.00 in0.0 mm 0.00 in0.0 mm 0.00 in0.0 mm
10:50 AM 43.7°F6.5°C 33.5°F0.8°C 67% 8.7 mph ESE14.0 kmh ESE 10.8 mph17.4 kmh 29.71 in1006.1 mb 0.00 in0.0 mm 0.00 in0.0 mm 0.00 in0.0 mm
11:00 AM 43.7°F6.5°C 33.5°F0.8°C 67% 8.6 mph SSE13.8 kmh SSE 10.8 mph17.4 kmh 29.72 in1006.4 mb 0.00 in0.0 mm 0.00 in0.0 mm 0.00 in0.0 mm
11:10 AM 44.1°F6.7°C 33.4°F0.8°C 66% 8.5 mph E13.7 kmh E 8.4 mph13.5 kmh 29.73 in1006.8 mb 0.00 in0.0 mm 0.00 in0.0 mm 0.00 in0.0 mm
11:20 AM 44.4°F6.9°C 33.0°F0.6°C 64% 9.3 mph SE15.0 kmh SE 13.3 mph21.4 kmh 29.75 in1007.5 mb 0.00 in0.0 mm 0.00 in0.0 mm 0.00 in0.0 mm
11:30 AM 44.4°F6.9°C 33.0°F0.6°C 64% 7.5 mph ESE12.1 kmh ESE 10.1 mph16.3 kmh 29.75 in1007.5 mb 0.00 in0.0 mm 0.00 in0.0 mm 0.00 in0.0 mm
11:40 AM 44.2°F6.8°C 32.8°F0.4°C 64% 8.8 mph WSW14.2 kmh WSW 10.8 mph17.4 kmh 29.76 in1007.8 mb 0.00 in0.0 mm 0.00 in0.0 mm 0.00 in0.0 mm
11:50 AM 43.5°F6.4°C 33.3°F0.7°C 67% 12.4 mph N20.0 kmh N 18.5 mph29.8 kmh 29.78 in1008.5 mb 0.00 in0.0 mm 0.00 in0.0 mm 0.00 in0.0 mm
12:00 PM 43.5°F6.4°C 34.0°F1.1°C 69% 10.2 mph E16.4 kmh E 16.0 mph25.7 kmh 29.79 in1008.8 mb 0.00 in0.0 mm 0.00 in0.0 mm 0.00 in0.0 mm
12:10 PM 44.1°F6.7°C 34.2°F1.2°C 68% 7.9 mph ENE12.7 kmh ENE 15.0 mph24.1 kmh 29.80 in1009.1 mb 0.00 in0.0 mm 0.00 in0.0 mm 0.00 in0.0 mm
12:20 PM 44.4°F6.9°C 33.4°F0.8°C 65% 10.0 mph SW16.1 kmh SW 12.5 mph20.1 kmh 29.80 in1009.1 mb 0.00 in0.0 mm 0.00 in0.0 mm 0.00 in0.0 mm
12:30 PM 44.4°F6.9°C 33.0°F0.6°C 64% 10.1 mph E16.3 kmh E 11.8 mph19.0 kmh 29.81 in1009.5 mb 0.00 in0.0 mm 0.00 in0.0 mm 0.00 in0.0 mm
12:40 PM 44.6°F7.0°C 31.6°F-0.2°C 60% 12.8 mph ESE20.6 kmh ESE 16.0 mph25.7 kmh 29.82 in1009.8 mb 0.00 in0.0 mm 0.00 in0.0 mm 0.00 in0.0 mm
12:50 PM 44.1°F6.7°C 32.7°F0.4°C 64% 12.3 mph ENE19.8 kmh ENE 18.5 mph29.8 kmh 29.83 in1010.2 mb 0.00 in0.0 mm 0.00 in0.0 mm 0.00 in0.0 mm
01:00 PM 44.2°F6.8°C 32.8°F0.4°C 64% 11.0 mph E17.7 kmh E 14.3 mph23.0 kmh 29.84 in1010.5 mb 0.00 in0.0 mm 0.00 in0.0 mm 0.00 in0.0 mm
01:10 PM 44.4°F6.9°C 32.6°F0.3°C 63% 9.8 mph NE15.8 kmh NE 10.1 mph16.3 kmh 29.85 in1010.8 mb 0.00 in0.0 mm 0.00 in0.0 mm 0.00 in0.0 mm
01:20 PM 44.6°F7.0°C 31.6°F-0.2°C 60% 8.3 mph NE13.4 kmh NE 13.3 mph21.4 kmh 29.86 in1011.2 mb 0.00 in0.0 mm 0.00 in0.0 mm 0.00 in0.0 mm
01:30 PM 44.6°F7.0°C 31.6°F-0.2°C 60% 8.3 mph E13.4 kmh E 17.5 mph28.2 kmh 29.87 in1011.5 mb 0.00 in0.0 mm 0.00 in0.0 mm 0.00 in0.0 mm
01:40 PM 44.6°F7.0°C 31.1°F-0.5°C 59% 8.4 mph E13.5 kmh E 12.5 mph20.1 kmh 29.88 in1011.9 mb 0.00 in0.0 mm 0.00 in0.0 mm 0.00 in0.0 mm
01:50 PM 44.4°F6.9°C 32.2°F0.1°C 62% 7.9 mph SE12.7 kmh SE 8.4 mph13.5 kmh 29.89 in1012.2 mb 0.00 in0.0 mm 0.00 in0.0 mm 0.00 in0.0 mm
02:00 PM 44.2°F6.8°C 32.0°F0.0°C 62% 7.5 mph SW12.1 kmh SW 10.1 mph16.3 kmh 29.89 in1012.2 mb 0.00 in0.0 mm 0.00 in0.0 mm 0.00 in0.0 mm
02:10 PM 44.1°F6.7°C 31.9°F-0.1°C 62% 6.3 mph NE10.1 kmh NE 15.0 mph24.1 kmh 29.90 in1012.5 mb 0.00 in0.0 mm 0.00 in0.0 mm 0.00 in0.0 mm
02:20 PM 43.9°F6.6°C 31.7°F-0.2°C 62% 7.9 mph E12.7 kmh E 10.1 mph16.3 kmh 29.91 in1012.9 mb 0.00 in0.0 mm 0.00 in0.0 mm 0.00 in0.0 mm
02:30 PM 43.7°F6.5°C 31.5°F-0.3°C 62% 5.7 mph NE9.2 kmh NE 6.6 mph10.6 kmh 29.92 in1013.2 mb 0.00 in0.0 mm 0.00 in0.0 mm 0.00 in0.0 mm
02:40 PM 43.3°F6.3°C 31.2°F-0.4°C 62% 5.4 mph S8.7 kmh S 6.6 mph10.6 kmh 29.93 in1013.5 mb 0.00 in0.0 mm 0.00 in0.0 mm 0.00 in0.0 mm
02:50 PM 43.2°F6.2°C 31.0°F-0.6°C 62% 8.4 mph E13.5 kmh E 11.8 mph19.0 kmh 29.93 in1013.5 mb 0.00 in0.0 mm 0.00 in0.0 mm 0.00 in0.0 mm
03:00 PM 43.0°F6.1°C 30.4°F-0.9°C 61% 5.3 mph SW8.5 kmh SW 11.8 mph19.0 kmh 29.95 in1014.2 mb 0.00 in0.0 mm 0.00 in0.0 mm 0.00 in0.0 mm
03:10 PM 42.8°F6.0°C 30.3°F-0.9°C 61% 4.6 mph NW7.4 kmh NW 6.6 mph10.6 kmh 29.96 in1014.6 mb 0.00 in0.0 mm 0.00 in0.0 mm 0.00 in0.0 mm
03:20 PM 42.4°F5.8°C 29.9°F-1.2°C 61% 5.8 mph NNW9.3 kmh NNW 7.6 mph12.2 kmh 29.97 in1014.9 mb 0.00 in0.0 mm 0.00 in0.0 mm 0.00 in0.0 mm
03:30 PM 42.1°F5.6°C 29.6°F-1.3°C 61% 3.6 mph S5.8 kmh S 4.9 mph7.9 kmh 29.97 in1014.9 mb 0.00 in0.0 mm 0.00 in0.0 mm 0.00 in0.0 mm
03:40 PM 41.7°F5.4°C 29.3°F-1.5°C 61% 3.4 mph SSW5.5 kmh SSW 5.9 mph9.5 kmh 29.98 in1015.2 mb 0.00 in0.0 mm 0.00 in0.0 mm 0.00 in0.0 mm
03:50 PM 41.4°F5.2°C 29.3°F-1.5°C 62% 4.5 mph SE7.2 kmh SE 8.4 mph13.5 kmh 29.99 in1015.6 mb 0.00 in0.0 mm 0.00 in0.0 mm 0.00 in0.0 mm
04:00 PM 41.0°F5.0°C 29.0°F-1.7°C 62% 3.9 mph SW6.3 kmh SW 4.9 mph7.9 kmh 30.00 in1015.9 mb 0.00 in0.0 mm 0.00 in0.0 mm 0.00 in0.0 mm
04:10 PM 40.8°F4.9°C 28.8°F-1.8°C 62% 4.7 mph SE7.6 kmh SE 5.9 mph9.5 kmh 30.01 in1016.3 mb 0.00 in0.0 mm 0.00 in0.0 mm 0.00 in0.0 mm
04:20 PM 40.5°F4.7°C 28.8°F-1.8°C 63% 3.7 mph S6.0 kmh S 4.9 mph7.9 kmh 30.02 in1016.6 mb 0.00 in0.0 mm 0.00 in0.0 mm 0.00 in0.0 mm
04:30 PM 40.1°F4.5°C 28.9°F-1.7°C 64% 2.3 mph S3.7 kmh S 3.4 mph5.5 kmh 30.02 in1016.6 mb 0.00 in0.0 mm 0.00 in0.0 mm 0.00 in0.0 mm
04:40 PM 39.7°F4.3°C 28.5°F-1.9°C 64% 3.5 mph S5.6 kmh S 4.2 mph6.8 kmh 30.03 in1016.9 mb 0.00 in0.0 mm 0.00 in0.0 mm 0.00 in0.0 mm
04:50 PM 39.6°F4.2°C 28.4°F-2.0°C 64% 2.8 mph S4.5 kmh S 4.2 mph6.8 kmh 30.03 in1016.9 mb 0.00 in0.0 mm 0.00 in0.0 mm 0.00 in0.0 mm
05:00 PM 39.4°F4.1°C 28.6°F-1.9°C 65% 3.8 mph SW6.1 kmh SW 4.2 mph6.8 kmh 30.04 in1017.3 mb 0.00 in0.0 mm 0.00 in0.0 mm 0.00 in0.0 mm
05:10 PM 39.2°F4.0°C 28.4°F-2.0°C 65% 3.3 mph SSW5.3 kmh SSW 4.9 mph7.9 kmh 30.04 in1017.3 mb 0.00 in0.0 mm 0.00 in0.0 mm 0.00 in0.0 mm
05:20 PM 39.2°F4.0°C 28.4°F-2.0°C 65% 3.9 mph SW6.3 kmh SW 6.6 mph10.6 kmh 30.06 in1017.9 mb 0.00 in0.0 mm 0.00 in0.0 mm 0.00 in0.0 mm
05:30 PM 39.0°F3.9°C 28.2°F-2.1°C 65% 3.4 mph SW5.5 kmh SW 4.9 mph7.9 kmh 30.06 in1017.9 mb 0.00 in0.0 mm 0.00 in0.0 mm 0.00 in0.0 mm
05:40 PM 39.0°F3.9°C 28.2°F-2.1°C 65% 3.6 mph SW5.8 kmh SW 4.9 mph7.9 kmh 30.07 in1018.3 mb 0.00 in0.0 mm 0.00 in0.0 mm 0.00 in0.0 mm
05:50 PM 38.8°F3.8°C 27.7°F-2.4°C 64% 3.1 mph S5.0 kmh S 4.9 mph7.9 kmh 30.07 in1018.3 mb 0.00 in0.0 mm 0.00 in0.0 mm 0.00 in0.0 mm
06:00 PM 38.7°F3.7°C 27.5°F-2.5°C 64% 2.8 mph ENE4.5 kmh ENE 4.9 mph7.9 kmh 30.09 in1019.0 mb 0.00 in0.0 mm 0.00 in0.0 mm 0.00 in0.0 mm
06:10 PM 38.5°F3.6°C 27.7°F-2.4°C 65% 3.0 mph E4.8 kmh E 4.2 mph6.8 kmh 30.09 in1019.0 mb 0.00 in0.0 mm 0.00 in0.0 mm 0.00 in0.0 mm
06:20 PM 38.3°F3.5°C 27.6°F-2.4°C 65% 2.9 mph SSE4.7 kmh SSE 4.2 mph6.8 kmh 30.10 in1019.3 mb 0.00 in0.0 mm 0.00 in0.0 mm 0.00 in0.0 mm
06:30 PM 38.1°F3.4°C 27.8°F-2.3°C 66% 3.1 mph S5.0 kmh S 4.9 mph7.9 kmh 30.09 in1019.0 mb 0.00 in0.0 mm 0.00 in0.0 mm 0.00 in0.0 mm
06:40 PM 37.9°F3.3°C 27.6°F-2.4°C 66% 2.0 mph S3.2 kmh S 3.4 mph5.5 kmh 30.09 in1019.0 mb 0.00 in0.0 mm 0.00 in0.0 mm 0.00 in0.0 mm
06:50 PM 37.8°F3.2°C 27.4°F-2.6°C 66% 2.6 mph SW4.2 kmh SW 3.4 mph5.5 kmh 30.10 in1019.3 mb 0.00 in0.0 mm 0.00 in0.0 mm 0.00 in0.0 mm
07:00 PM 37.6°F3.1°C 27.6°F-2.4°C 67% 1.8 mph SSW2.9 kmh SSW 3.4 mph5.5 kmh 30.11 in1019.6 mb 0.00 in0.0 mm 0.00 in0.0 mm 0.00 in0.0 mm
07:10 PM 37.2°F2.9°C 27.3°F-2.6°C 67% 1.8 mph SSW2.9 kmh SSW 2.5 mph4.0 kmh 30.11 in1019.6 mb 0.00 in0.0 mm 0.00 in0.0 mm 0.00 in0.0 mm
07:20 PM 37.0°F2.8°C 27.1°F-2.7°C 67% 1.7 mph SW2.7 kmh SW 3.4 mph5.5 kmh 30.12 in1020.0 mb 0.00 in0.0 mm 0.00 in0.0 mm 0.00 in0.0 mm
07:30 PM 36.9°F2.7°C 27.3°F-2.6°C 68% 1.7 mph SSE2.7 kmh SSE 2.5 mph4.0 kmh 30.12 in1020.0 mb 0.00 in0.0 mm 0.00 in0.0 mm 0.00 in0.0 mm
07:40 PM 36.9°F2.7°C 27.3°F-2.6°C 68% 1.7 mph WNW2.7 kmh WNW 3.4 mph5.5 kmh 30.12 in1020.0 mb 0.00 in0.0 mm 0.00 in0.0 mm 0.00 in0.0 mm
07:50 PM 37.0°F2.8°C 27.5°F-2.5°C 68% 1.9 mph SW3.1 kmh SW 4.2 mph6.8 kmh 30.12 in1020.0 mb 0.00 in0.0 mm 0.00 in0.0 mm 0.00 in0.0 mm
08:00 PM 37.0°F2.8°C 27.5°F-2.5°C 68% 1.4 mph SW2.3 kmh SW 4.2 mph6.8 kmh 30.13 in1020.3 mb 0.00 in0.0 mm 0.00 in0.0 mm 0.00 in0.0 mm
08:10 PM 36.5°F2.5°C 26.6°F-3.0°C 67% 1.1 mph S1.8 kmh S 1.7 mph2.7 kmh 30.13 in1020.3 mb 0.00 in0.0 mm 0.00 in0.0 mm 0.00 in0.0 mm
08:20 PM 35.6°F2.0°C 25.7°F-3.5°C 67% 1.5 mph SW2.4 kmh SW 2.5 mph4.0 kmh 30.14 in1020.7 mb 0.00 in0.0 mm 0.00 in0.0 mm 0.00 in0.0 mm
08:30 PM 35.1°F1.7°C 25.6°F-3.6°C 68% 2.0 mph SW3.2 kmh SW 3.4 mph5.5 kmh 30.14 in1020.7 mb 0.00 in0.0 mm 0.00 in0.0 mm 0.00 in0.0 mm
08:40 PM 34.7°F1.5°C 25.6°F-3.6°C 69% 2.1 mph WSW3.4 kmh WSW 3.4 mph5.5 kmh 30.15 in1021.0 mb 0.00 in0.0 mm 0.00 in0.0 mm 0.00 in0.0 mm
08:50 PM 34.7°F1.5°C 25.9°F-3.4°C 70% 1.3 mph SW2.1 kmh SW 2.5 mph4.0 kmh 30.15 in1021.0 mb 0.00 in0.0 mm 0.00 in0.0 mm 0.00 in0.0 mm
09:00 PM 34.3°F1.3°C 25.6°F-3.6°C 70% 1.8 mph WSW2.9 kmh WSW 2.5 mph4.0 kmh 30.15 in1021.0 mb 0.00 in0.0 mm 0.00 in0.0 mm 0.00 in0.0 mm
09:10 PM 34.0°F1.1°C 25.6°F-3.6°C 71% 1.2 mph SW1.9 kmh SW 2.5 mph4.0 kmh 30.15 in1021.0 mb 0.00 in0.0 mm 0.00 in0.0 mm 0.00 in0.0 mm
09:20 PM 33.4°F0.8°C 25.0°F-3.9°C 71% 1.3 mph WSW2.1 kmh WSW 2.5 mph4.0 kmh 30.16 in1021.3 mb 0.00 in0.0 mm 0.00 in0.0 mm 0.00 in0.0 mm
09:30 PM 33.1°F0.6°C 24.7°F-4.1°C 71% 1.1 mph SSW1.8 kmh SSW 2.5 mph4.0 kmh 30.15 in1021.0 mb 0.00 in0.0 mm 0.00 in0.0 mm 0.00 in0.0 mm
09:40 PM 32.9°F0.5°C 24.9°F-3.9°C 72% 2.7 mph SW4.3 kmh SW 3.4 mph5.5 kmh 30.16 in1021.3 mb 0.00 in0.0 mm 0.00 in0.0 mm 0.00 in0.0 mm
09:50 PM 32.9°F0.5°C 25.2°F-3.8°C 73% 2.3 mph SW3.7 kmh SW 3.4 mph5.5 kmh 30.15 in1021.0 mb 0.00 in0.0 mm 0.00 in0.0 mm 0.00 in0.0 mm
10:00 PM 32.7°F0.4°C 25.0°F-3.9°C 73% 3.0 mph SW4.8 kmh SW 4.9 mph7.9 kmh 30.16 in1021.3 mb 0.00 in0.0 mm 0.00 in0.0 mm 0.00 in0.0 mm
10:10 PM 32.7°F0.4°C 25.3°F-3.7°C 74% 2.4 mph S3.9 kmh S 2.5 mph4.0 kmh 30.16 in1021.3 mb 0.00 in0.0 mm 0.00 in0.0 mm 0.00 in0.0 mm
10:20 PM 32.7°F0.4°C 25.3°F-3.7°C 74% 1.4 mph SW2.3 kmh SW 2.5 mph4.0 kmh 30.16 in1021.3 mb 0.00 in0.0 mm 0.00 in0.0 mm 0.00 in0.0 mm
10:30 PM 32.7°F0.4°C 25.7°F-3.5°C 75% 2.2 mph SW3.5 kmh SW 4.2 mph6.8 kmh 30.16 in1021.3 mb 0.00 in0.0 mm 0.00 in0.0 mm 0.00 in0.0 mm
10:40 PM 32.5°F0.3°C 25.5°F-3.6°C 75% 1.3 mph SW2.1 kmh SW 2.5 mph4.0 kmh 30.16 in1021.3 mb 0.00 in0.0 mm 0.00 in0.0 mm 0.00 in0.0 mm
10:50 PM 32.4°F0.2°C 25.3°F-3.7°C 75% 2.0 mph SSW3.2 kmh SSW 4.9 mph7.9 kmh 30.16 in1021.3 mb 0.00 in0.0 mm 0.00 in0.0 mm 0.00 in0.0 mm
11:00 PM 32.2°F0.1°C 25.1°F-3.8°C 75% 1.6 mph SW2.6 kmh SW 2.5 mph4.0 kmh 30.16 in1021.3 mb 0.00 in0.0 mm 0.00 in0.0 mm 0.00 in0.0 mm
11:10 PM 32.2°F0.1°C 25.5°F-3.6°C 76% 0.3 mph S0.5 kmh S 1.7 mph2.7 kmh 30.16 in1021.3 mb 0.00 in0.0 mm 0.00 in0.0 mm 0.00 in0.0 mm
11:20 PM 32.2°F0.1°C 25.5°F-3.6°C 76% 1.7 mph SW2.7 kmh SW 2.5 mph4.0 kmh 30.17 in1021.7 mb 0.00 in0.0 mm 0.00 in0.0 mm 0.00 in0.0 mm
11:30 PM 32.4°F0.2°C 26.0°F-3.3°C 77% 2.7 mph SSW4.3 kmh SSW 3.4 mph5.5 kmh 30.17 in1021.7 mb 0.00 in0.0 mm 0.00 in0.0 mm 0.00 in0.0 mm
11:40 PM 32.4°F0.2°C 26.3°F-3.2°C 78% 2.3 mph WSW3.7 kmh WSW 3.4 mph5.5 kmh 30.16 in1021.3 mb 0.00 in0.0 mm 0.00 in0.0 mm 0.00 in0.0 mm
11:50 PM 32.4°F0.2°C 26.3°F-3.2°C 78% 2.9 mph S4.7 kmh S 3.4 mph5.5 kmh 30.17 in1021.7 mb 0.00 in0.0 mm 0.00 in0.0 mm 0.00 in0.0 mm